sensor_id;sensor_type;location;lat;lon;timestamp;temperature;humidity
774;DHT22;370;48.810;9.150;2022-07-12T00:00:01;17.50;17.10
774;DHT22;370;48.810;9.150;2022-07-12T00:02:29;17.50;17.10
774;DHT22;370;48.810;9.150;2022-07-12T00:04:55;17.50;17.20
774;DHT22;370;48.810;9.150;2022-07-12T00:07:22;17.50;17.40
774;DHT22;370;48.810;9.150;2022-07-12T00:09:49;17.40;17.30
774;DHT22;370;48.810;9.150;2022-07-12T00:12:16;17.20;18.70
774;DHT22;370;48.810;9.150;2022-07-12T00:14:44;17.20;18.70
774;DHT22;370;48.810;9.150;2022-07-12T00:17:11;17.10;19.30
774;DHT22;370;48.810;9.150;2022-07-12T00:19:37;17.20;19.00
774;DHT22;370;48.810;9.150;2022-07-12T00:22:04;17.20;18.70
774;DHT22;370;48.810;9.150;2022-07-12T00:24:31;17.00;19.40
774;DHT22;370;48.810;9.150;2022-07-12T00:26:58;16.90;20.70
774;DHT22;370;48.810;9.150;2022-07-12T00:29:25;16.90;20.30
774;DHT22;370;48.810;9.150;2022-07-12T00:31:53;17.00;20.20
774;DHT22;370;48.810;9.150;2022-07-12T00:34:20;16.70;22.00
774;DHT22;370;48.810;9.150;2022-07-12T00:36:46;16.60;22.70
774;DHT22;370;48.810;9.150;2022-07-12T00:39:13;16.50;23.90
774;DHT22;370;48.810;9.150;2022-07-12T00:41:40;16.50;24.10
774;DHT22;370;48.810;9.150;2022-07-12T00:44:08;16.50;24.70
774;DHT22;370;48.810;9.150;2022-07-12T00:46:35;16.60;24.10
774;DHT22;370;48.810;9.150;2022-07-12T00:49:03;16.60;23.90
774;DHT22;370;48.810;9.150;2022-07-12T00:51:30;16.50;25.00
774;DHT22;370;48.810;9.150;2022-07-12T00:53:57;16.50;24.70
774;DHT22;370;48.810;9.150;2022-07-12T00:56:25;16.50;24.90
774;DHT22;370;48.810;9.150;2022-07-12T00:58:52;16.50;25.00
774;DHT22;370;48.810;9.150;2022-07-12T01:01:19;16.60;24.40
774;DHT22;370;48.810;9.150;2022-07-12T01:03:48;16.50;24.80
774;DHT22;370;48.810;9.150;2022-07-12T01:06:17;16.50;24.40
774;DHT22;370;48.810;9.150;2022-07-12T01:08:46;16.60;24.20
774;DHT22;370;48.810;9.150;2022-07-12T01:11:13;16.60;24.60
774;DHT22;370;48.810;9.150;2022-07-12T01:13:40;16.60;24.70
774;DHT22;370;48.810;9.150;2022-07-12T01:16:08;16.60;24.80
774;DHT22;370;48.810;9.150;2022-07-12T01:18:35;16.60;24.40
774;DHT22;370;48.810;9.150;2022-07-12T01:21:04;16.60;24.70
774;DHT22;370;48.810;9.150;2022-07-12T01:23:35;16.50;25.10
774;DHT22;370;48.810;9.150;2022-07-12T01:26:03;16.60;25.00
774;DHT22;370;48.810;9.150;2022-07-12T01:28:30;16.50;25.20
774;DHT22;370;48.810;9.150;2022-07-12T01:30:57;16.50;26.10
774;DHT22;370;48.810;9.150;2022-07-12T01:33:25;16.40;25.40
774;DHT22;370;48.810;9.150;2022-07-12T01:35:52;16.30;26.10
774;DHT22;370;48.810;9.150;2022-07-12T01:38:18;16.30;26.50
774;DHT22;370;48.810;9.150;2022-07-12T01:40:46;16.30;26.50
774;DHT22;370;48.810;9.150;2022-07-12T01:43:14;16.30;26.50
774;DHT22;370;48.810;9.150;2022-07-12T01:45:42;16.30;26.50
774;DHT22;370;48.810;9.150;2022-07-12T01:48:09;16.30;26.50
774;DHT22;370;48.810;9.150;2022-07-12T01:50:36;16.10;26.40
774;DHT22;370;48.810;9.150;2022-07-12T01:53:05;16.10;28.30
774;DHT22;370;48.810;9.150;2022-07-12T01:55:32;16.10;27.80
774;DHT22;370;48.810;9.150;2022-07-12T01:58:00;16.00;27.90
774;DHT22;370;48.810;9.150;2022-07-12T02:00:27;15.90;29.30
774;DHT22;370;48.810;9.150;2022-07-12T02:02:54;15.90;28.90
774;DHT22;370;48.810;9.150;2022-07-12T02:05:21;15.90;28.70
774;DHT22;370;48.810;9.150;2022-07-12T02:07:49;15.90;29.00
774;DHT22;370;48.810;9.150;2022-07-12T02:10:16;15.80;29.30
774;DHT22;370;48.810;9.150;2022-07-12T02:12:42;15.70;29.90
774;DHT22;370;48.810;9.150;2022-07-12T02:15:11;15.70;30.30
774;DHT22;370;48.810;9.150;2022-07-12T02:17:38;15.70;31.10
774;DHT22;370;48.810;9.150;2022-07-12T02:20:05;15.50;32.20
774;DHT22;370;48.810;9.150;2022-07-12T02:22:32;15.50;32.90
774;DHT22;370;48.810;9.150;2022-07-12T02:25:00;15.50;32.90
774;DHT22;370;48.810;9.150;2022-07-12T02:27:27;15.40;33.00
774;DHT22;370;48.810;9.150;2022-07-12T02:29:53;15.50;32.80
774;DHT22;370;48.810;9.150;2022-07-12T02:32:21;15.50;32.10
774;DHT22;370;48.810;9.150;2022-07-12T02:34:48;15.50;31.60
774;DHT22;370;48.810;9.150;2022-07-12T02:37:15;15.40;32.10
774;DHT22;370;48.810;9.150;2022-07-12T02:39:42;15.40;32.50
774;DHT22;370;48.810;9.150;2022-07-12T02:42:08;15.40;32.40
774;DHT22;370;48.810;9.150;2022-07-12T02:44:35;15.20;33.20
774;DHT22;370;48.810;9.150;2022-07-12T02:47:02;15.20;34.40
774;DHT22;370;48.810;9.150;2022-07-12T02:49:30;15.20;34.60
774;DHT22;370;48.810;9.150;2022-07-12T02:51:57;15.00;34.80
774;DHT22;370;48.810;9.150;2022-07-12T02:54:24;15.00;36.10
774;DHT22;370;48.810;9.150;2022-07-12T02:56:51;15.00;35.10
774;DHT22;370;48.810;9.150;2022-07-12T02:59:18;14.90;37.50
774;DHT22;370;48.810;9.150;2022-07-12T03:01:44;14.90;36.80
774;DHT22;370;48.810;9.150;2022-07-12T03:04:11;15.00;35.70
774;DHT22;370;48.810;9.150;2022-07-12T03:06:39;15.00;35.50
774;DHT22;370;48.810;9.150;2022-07-12T03:12:28;14.80;35.70
774;DHT22;370;48.810;9.150;2022-07-12T03:14:55;14.70;37.10
774;DHT22;370;48.810;9.150;2022-07-12T03:17:22;14.70;37.70
774;DHT22;370;48.810;9.150;2022-07-12T03:19:48;14.70;37.50
774;DHT22;370;48.810;9.150;2022-07-12T03:22:17;14.70;38.60
774;DHT22;370;48.810;9.150;2022-07-12T03:24:44;14.80;37.60
774;DHT22;370;48.810;9.150;2022-07-12T03:27:10;14.70;38.40
774;DHT22;370;48.810;9.150;2022-07-12T03:29:38;14.70;38.70
774;DHT22;370;48.810;9.150;2022-07-12T03:32:05;14.90;37.90
774;DHT22;370;48.810;9.150;2022-07-12T03:37:55;14.90;37.10
774;DHT22;370;48.810;9.150;2022-07-12T03:40:22;14.90;37.10
774;DHT22;370;48.810;9.150;2022-07-12T03:42:49;14.90;36.50
774;DHT22;370;48.810;9.150;2022-07-12T03:45:16;15.00;34.80
774;DHT22;370;48.810;9.150;2022-07-12T03:47:43;15.20;34.40
774;DHT22;370;48.810;9.150;2022-07-12T03:50:12;15.20;33.60
774;DHT22;370;48.810;9.150;2022-07-12T03:52:40;15.20;33.10
774;DHT22;370;48.810;9.150;2022-07-12T03:55:09;15.20;33.20
774;DHT22;370;48.810;9.150;2022-07-12T03:57:36;15.20;33.40
774;DHT22;370;48.810;9.150;2022-07-12T04:00:05;15.20;33.00
774;DHT22;370;48.810;9.150;2022-07-12T04:02:33;15.20;33.60
774;DHT22;370;48.810;9.150;2022-07-12T04:05:00;15.30;33.40
774;DHT22;370;48.810;9.150;2022-07-12T04:07:26;15.40;32.20
774;DHT22;370;48.810;9.150;2022-07-12T04:09:53;15.30;31.00
774;DHT22;370;48.810;9.150;2022-07-12T04:12:21;15.30;30.30
774;DHT22;370;48.810;9.150;2022-07-12T04:14:48;15.10;33.30
774;DHT22;370;48.810;9.150;2022-07-12T04:17:16;15.00;34.80
774;DHT22;370;48.810;9.150;2022-07-12T04:19:43;15.00;34.80
774;DHT22;370;48.810;9.150;2022-07-12T04:22:09;15.20;35.00
774;DHT22;370;48.810;9.150;2022-07-12T04:24:36;15.20;35.00
774;DHT22;370;48.810;9.150;2022-07-12T04:27:03;15.30;33.30
774;DHT22;370;48.810;9.150;2022-07-12T04:29:31;15.40;32.00
774;DHT22;370;48.810;9.150;2022-07-12T04:31:58;15.50;30.90
774;DHT22;370;48.810;9.150;2022-07-12T04:34:25;15.60;30.10
774;DHT22;370;48.810;9.150;2022-07-12T04:36:52;15.70;29.10
774;DHT22;370;48.810;9.150;2022-07-12T04:39:19;15.80;28.30
774;DHT22;370;48.810;9.150;2022-07-12T04:41:46;15.80;28.70
774;DHT22;370;48.810;9.150;2022-07-12T04:44:13;15.90;27.60
774;DHT22;370;48.810;9.150;2022-07-12T04:46:41;15.90;28.10
774;DHT22;370;48.810;9.150;2022-07-12T04:49:08;16.00;26.70
774;DHT22;370;48.810;9.150;2022-07-12T04:51:35;16.00;26.80
774;DHT22;370;48.810;9.150;2022-07-12T04:54:01;16.20;26.50
774;DHT22;370;48.810;9.150;2022-07-12T04:56:28;16.30;26.30
774;DHT22;370;48.810;9.150;2022-07-12T04:58:55;16.20;26.50
774;DHT22;370;48.810;9.150;2022-07-12T05:01:22;16.40;26.40
774;DHT22;370;48.810;9.150;2022-07-12T05:03:50;16.50;25.40
774;DHT22;370;48.810;9.150;2022-07-12T05:06:17;16.60;25.30
774;DHT22;370;48.810;9.150;2022-07-12T05:08:44;16.70;24.30
774;DHT22;370;48.810;9.150;2022-07-12T05:11:10;16.90;23.40
774;DHT22;370;48.810;9.150;2022-07-12T05:13:37;17.10;22.50
774;DHT22;370;48.810;9.150;2022-07-12T05:16:06;17.20;21.80
774;DHT22;370;48.810;9.150;2022-07-12T05:18:33;17.40;20.70
774;DHT22;370;48.810;9.150;2022-07-12T05:21:02;17.40;20.40
774;DHT22;370;48.810;9.150;2022-07-12T05:23:29;17.70;19.10
774;DHT22;370;48.810;9.150;2022-07-12T05:25:55;17.70;19.00
774;DHT22;370;48.810;9.150;2022-07-12T05:28:22;17.80;18.40
774;DHT22;370;48.810;9.150;2022-07-12T05:30:49;17.70;19.00
774;DHT22;370;48.810;9.150;2022-07-12T05:33:16;17.90;19.20
774;DHT22;370;48.810;9.150;2022-07-12T05:35:42;18.10;17.70
774;DHT22;370;48.810;9.150;2022-07-12T05:38:10;18.20;16.80
774;DHT22;370;48.810;9.150;2022-07-12T05:40:37;18.30;16.60
774;DHT22;370;48.810;9.150;2022-07-12T05:43:04;18.50;15.20
774;DHT22;370;48.810;9.150;2022-07-12T05:45:31;18.70;14.10
774;DHT22;370;48.810;9.150;2022-07-12T05:47:57;18.80;13.70
774;DHT22;370;48.810;9.150;2022-07-12T05:50:24;19.10;12.40
774;DHT22;370;48.810;9.150;2022-07-12T05:52:51;19.20;11.30
774;DHT22;370;48.810;9.150;2022-07-12T05:55:40;19.20;11.30
774;DHT22;370;48.810;9.150;2022-07-12T05:58:07;19.40;10.70
774;DHT22;370;48.810;9.150;2022-07-12T06:00:34;19.50;10.80
774;DHT22;370;48.810;9.150;2022-07-12T06:03:01;19.30;10.20
774;DHT22;370;48.810;9.150;2022-07-12T06:05:27;19.00;11.20
774;DHT22;370;48.810;9.150;2022-07-12T06:07:54;18.50;14.40
774;DHT22;370;48.810;9.150;2022-07-12T06:10:22;18.60;13.50
774;DHT22;370;48.810;9.150;2022-07-12T06:12:50;18.90;12.80
774;DHT22;370;48.810;9.150;2022-07-12T06:15:17;19.20;11.70
774;DHT22;370;48.810;9.150;2022-07-12T06:17:44;19.30;11.40
774;DHT22;370;48.810;9.150;2022-07-12T06:20:11;19.40;10.40
774;DHT22;370;48.810;9.150;2022-07-12T06:22:38;19.10;9.70
774;DHT22;370;48.810;9.150;2022-07-12T06:28:28;19.40;8.90
774;DHT22;370;48.810;9.150;2022-07-12T06:30:55;19.20;10.40
774;DHT22;370;48.810;9.150;2022-07-12T06:33:21;19.50;8.80
774;DHT22;370;48.810;9.150;2022-07-12T06:35:48;20.00;7.20
774;DHT22;370;48.810;9.150;2022-07-12T06:38:15;20.20;6.20
774;DHT22;370;48.810;9.150;2022-07-12T06:40:42;20.50;5.20
774;DHT22;370;48.810;9.150;2022-07-12T06:43:09;20.80;3.30
774;DHT22;370;48.810;9.150;2022-07-12T06:45:37;21.10;3.50
774;DHT22;370;48.810;9.150;2022-07-12T06:48:05;21.30;2.50
774;DHT22;370;48.810;9.150;2022-07-12T06:50:32;21.30;2.40
774;DHT22;370;48.810;9.150;2022-07-12T06:52:59;21.50;1.50
774;DHT22;370;48.810;9.150;2022-07-12T06:55:26;21.70;1.40
774;DHT22;370;48.810;9.150;2022-07-12T06:57:53;21.80;1.00
774;DHT22;370;48.810;9.150;2022-07-12T07:00:19;22.00;1.00
774;DHT22;370;48.810;9.150;2022-07-12T07:02:48;22.20;1.00
774;DHT22;370;48.810;9.150;2022-07-12T07:05:15;22.40;1.00
774;DHT22;370;48.810;9.150;2022-07-12T07:07:43;22.50;1.00
774;DHT22;370;48.810;9.150;2022-07-12T07:10:10;22.70;1.00
774;DHT22;370;48.810;9.150;2022-07-12T07:12:37;22.70;1.00
774;DHT22;370;48.810;9.150;2022-07-12T07:15:04;22.80;1.00
774;DHT22;370;48.810;9.150;2022-07-12T07:17:31;22.80;1.00
774;DHT22;370;48.810;9.150;2022-07-12T07:20:00;22.70;1.00
774;DHT22;370;48.810;9.150;2022-07-12T07:22:26;23.00;1.00
774;DHT22;370;48.810;9.150;2022-07-12T07:24:56;22.80;1.00
774;DHT22;370;48.810;9.150;2022-07-12T07:27:23;23.00;1.00
774;DHT22;370;48.810;9.150;2022-07-12T07:33:12;23.50;1.00
774;DHT22;370;48.810;9.150;2022-07-12T07:35:40;23.80;1.00
774;DHT22;370;48.810;9.150;2022-07-12T07:38:08;23.80;1.00
774;DHT22;370;48.810;9.150;2022-07-12T07:40:36;24.10;1.00
774;DHT22;370;48.810;9.150;2022-07-12T07:43:03;24.30;1.00
774;DHT22;370;48.810;9.150;2022-07-12T07:45:29;24.60;1.00
774;DHT22;370;48.810;9.150;2022-07-12T07:47:56;24.80;1.00
774;DHT22;370;48.810;9.150;2022-07-12T07:50:23;24.90;1.00
774;DHT22;370;48.810;9.150;2022-07-12T07:52:51;25.00;1.00
774;DHT22;370;48.810;9.150;2022-07-12T07:55:18;25.40;1.00
774;DHT22;370;48.810;9.150;2022-07-12T07:57:45;25.70;1.00
774;DHT22;370;48.810;9.150;2022-07-12T08:00:13;26.10;1.00
774;DHT22;370;48.810;9.150;2022-07-12T08:02:40;26.40;1.00
774;DHT22;370;48.810;9.150;2022-07-12T08:05:08;26.70;1.00
774;DHT22;370;48.810;9.150;2022-07-12T08:07:35;27.00;1.00
774;DHT22;370;48.810;9.150;2022-07-12T08:10:03;27.20;1.00
774;DHT22;370;48.810;9.150;2022-07-12T08:12:30;27.40;1.00
774;DHT22;370;48.810;9.150;2022-07-12T08:14:57;27.70;1.00
774;DHT22;370;48.810;9.150;2022-07-12T08:17:24;28.00;1.00
774;DHT22;370;48.810;9.150;2022-07-12T08:19:50;28.30;1.00
774;DHT22;370;48.810;9.150;2022-07-12T08:22:17;28.70;1.00
774;DHT22;370;48.810;9.150;2022-07-12T08:24:44;29.20;1.00
774;DHT22;370;48.810;9.150;2022-07-12T08:27:12;29.30;1.00
774;DHT22;370;48.810;9.150;2022-07-12T08:29:39;29.60;1.00
774;DHT22;370;48.810;9.150;2022-07-12T08:32:06;29.90;1.00
774;DHT22;370;48.810;9.150;2022-07-12T08:34:34;30.00;1.00
774;DHT22;370;48.810;9.150;2022-07-12T08:37:01;30.30;1.00
774;DHT22;370;48.810;9.150;2022-07-12T08:39:27;30.70;1.00
774;DHT22;370;48.810;9.150;2022-07-12T08:41:54;31.00;1.00
774;DHT22;370;48.810;9.150;2022-07-12T08:44:22;31.30;1.00
774;DHT22;370;48.810;9.150;2022-07-12T08:46:49;31.60;1.00
774;DHT22;370;48.810;9.150;2022-07-12T08:49:18;31.90;1.00
774;DHT22;370;48.810;9.150;2022-07-12T08:51:45;32.30;1.00
774;DHT22;370;48.810;9.150;2022-07-12T08:54:12;32.50;1.00
774;DHT22;370;48.810;9.150;2022-07-12T08:56:42;32.90;1.00
774;DHT22;370;48.810;9.150;2022-07-12T08:59:10;33.00;1.00
774;DHT22;370;48.810;9.150;2022-07-12T09:01:43;33.20;1.00
774;DHT22;370;48.810;9.150;2022-07-12T09:04:11;33.10;1.00
774;DHT22;370;48.810;9.150;2022-07-12T09:06:37;33.60;1.00
774;DHT22;370;48.810;9.150;2022-07-12T09:09:04;34.20;1.00
774;DHT22;370;48.810;9.150;2022-07-12T09:11:35;34.60;1.00
774;DHT22;370;48.810;9.150;2022-07-12T09:14:02;34.60;1.00
774;DHT22;370;48.810;9.150;2022-07-12T09:16:29;34.80;1.00
774;DHT22;370;48.810;9.150;2022-07-12T09:19:14;34.60;1.00
774;DHT22;370;48.810;9.150;2022-07-12T09:21:49;34.40;1.00
774;DHT22;370;48.810;9.150;2022-07-12T09:24:18;34.50;1.00
774;DHT22;370;48.810;9.150;2022-07-12T09:26:45;35.60;1.00
774;DHT22;370;48.810;9.150;2022-07-12T09:29:13;36.10;1.00
774;DHT22;370;48.810;9.150;2022-07-12T09:31:42;36.60;1.00
774;DHT22;370;48.810;9.150;2022-07-12T09:34:25;37.30;1.00
774;DHT22;370;48.810;9.150;2022-07-12T09:37:08;37.90;1.00
774;DHT22;370;48.810;9.150;2022-07-12T09:39:35;38.40;1.00
774;DHT22;370;48.810;9.150;2022-07-12T09:42:03;38.20;1.00
774;DHT22;370;48.810;9.150;2022-07-12T09:44:30;38.50;1.00
774;DHT22;370;48.810;9.150;2022-07-12T09:46:59;38.20;1.00
774;DHT22;370;48.810;9.150;2022-07-12T09:49:28;38.50;1.00
774;DHT22;370;48.810;9.150;2022-07-12T09:51:56;38.50;1.00
774;DHT22;370;48.810;9.150;2022-07-12T09:54:25;37.70;1.00
774;DHT22;370;48.810;9.150;2022-07-12T09:56:53;37.00;1.00
774;DHT22;370;48.810;9.150;2022-07-12T09:59:23;36.50;1.00
774;DHT22;370;48.810;9.150;2022-07-12T10:01:50;36.90;1.00
774;DHT22;370;48.810;9.150;2022-07-12T10:04:20;36.90;1.00
774;DHT22;370;48.810;9.150;2022-07-12T10:06:50;37.60;1.00
774;DHT22;370;48.810;9.150;2022-07-12T10:09:17;39.00;1.00
774;DHT22;370;48.810;9.150;2022-07-12T10:11:44;40.80;1.00
774;DHT22;370;48.810;9.150;2022-07-12T10:14:12;41.90;1.00
774;DHT22;370;48.810;9.150;2022-07-12T10:16:42;42.20;1.00
774;DHT22;370;48.810;9.150;2022-07-12T10:19:25;41.60;1.00
774;DHT22;370;48.810;9.150;2022-07-12T10:21:54;40.40;1.00
774;DHT22;370;48.810;9.150;2022-07-12T10:24:50;38.80;1.00
774;DHT22;370;48.810;9.150;2022-07-12T10:27:33;38.40;1.00
774;DHT22;370;48.810;9.150;2022-07-12T10:30:20;40.80;1.00
774;DHT22;370;48.810;9.150;2022-07-12T10:32:49;41.90;1.00
774;DHT22;370;48.810;9.150;2022-07-12T10:35:17;42.50;1.00
774;DHT22;370;48.810;9.150;2022-07-12T10:38:18;43.20;1.00
774;DHT22;370;48.810;9.150;2022-07-12T10:40:46;44.70;1.00
774;DHT22;370;48.810;9.150;2022-07-12T10:43:22;45.40;1.00
774;DHT22;370;48.810;9.150;2022-07-12T10:46:22;45.60;1.00
774;DHT22;370;48.810;9.150;2022-07-12T10:48:50;47.40;1.00
774;DHT22;370;48.810;9.150;2022-07-12T10:51:17;46.60;1.00
774;DHT22;370;48.810;9.150;2022-07-12T10:53:47;47.30;1.00
774;DHT22;370;48.810;9.150;2022-07-12T10:56:20;48.60;1.00
774;DHT22;370;48.810;9.150;2022-07-12T10:58:48;50.40;1.00
774;DHT22;370;48.810;9.150;2022-07-12T11:01:17;50.10;1.00
774;DHT22;370;48.810;9.150;2022-07-12T11:03:46;49.70;1.00
774;DHT22;370;48.810;9.150;2022-07-12T11:06:14;49.20;1.00
774;DHT22;370;48.810;9.150;2022-07-12T11:08:54;48.90;1.00
774;DHT22;370;48.810;9.150;2022-07-12T11:11:22;47.70;1.00
774;DHT22;370;48.810;9.150;2022-07-12T11:13:50;44.70;1.00
774;DHT22;370;48.810;9.150;2022-07-12T11:16:17;42.40;1.00
774;DHT22;370;48.810;9.150;2022-07-12T11:18:44;41.90;1.00
774;DHT22;370;48.810;9.150;2022-07-12T11:21:12;43.40;1.00
774;DHT22;370;48.810;9.150;2022-07-12T11:23:39;44.10;1.00
774;DHT22;370;48.810;9.150;2022-07-12T11:26:10;44.50;1.00
774;DHT22;370;48.810;9.150;2022-07-12T11:28:38;44.40;1.00
774;DHT22;370;48.810;9.150;2022-07-12T11:31:06;41.90;1.00
774;DHT22;370;48.810;9.150;2022-07-12T11:33:36;42.70;1.00
774;DHT22;370;48.810;9.150;2022-07-12T11:36:05;43.40;1.00
774;DHT22;370;48.810;9.150;2022-07-12T11:38:36;44.00;1.00
774;DHT22;370;48.810;9.150;2022-07-12T11:41:05;44.00;1.00
774;DHT22;370;48.810;9.150;2022-07-12T11:43:34;44.60;1.00
774;DHT22;370;48.810;9.150;2022-07-12T11:46:03;45.10;1.00
774;DHT22;370;48.810;9.150;2022-07-12T11:48:30;45.40;1.00
774;DHT22;370;48.810;9.150;2022-07-12T11:51:01;45.20;1.00
774;DHT22;370;48.810;9.150;2022-07-12T11:53:29;45.40;1.00
774;DHT22;370;48.810;9.150;2022-07-12T11:55:57;45.60;1.00
774;DHT22;370;48.810;9.150;2022-07-12T11:58:25;45.70;1.00
774;DHT22;370;48.810;9.150;2022-07-12T12:00:55;45.20;1.00
774;DHT22;370;48.810;9.150;2022-07-12T12:03:23;44.60;1.00
774;DHT22;370;48.810;9.150;2022-07-12T12:05:51;44.10;1.00
774;DHT22;370;48.810;9.150;2022-07-12T12:08:18;43.40;1.00
774;DHT22;370;48.810;9.150;2022-07-12T12:10:53;44.00;1.00
774;DHT22;370;48.810;9.150;2022-07-12T12:13:20;43.00;1.00
774;DHT22;370;48.810;9.150;2022-07-12T12:15:53;43.80;1.00
774;DHT22;370;48.810;9.150;2022-07-12T12:18:39;44.50;1.00
774;DHT22;370;48.810;9.150;2022-07-12T12:21:09;44.80;1.00
774;DHT22;370;48.810;9.150;2022-07-12T12:23:37;45.00;1.00
774;DHT22;370;48.810;9.150;2022-07-12T12:26:09;44.90;1.00
774;DHT22;370;48.810;9.150;2022-07-12T12:28:44;45.00;1.00
774;DHT22;370;48.810;9.150;2022-07-12T12:31:12;45.00;1.00
774;DHT22;370;48.810;9.150;2022-07-12T12:33:41;42.60;1.00
774;DHT22;370;48.810;9.150;2022-07-12T12:36:19;43.90;1.00
774;DHT22;370;48.810;9.150;2022-07-12T12:38:47;44.60;1.00
774;DHT22;370;48.810;9.150;2022-07-12T12:41:15;45.00;1.00
774;DHT22;370;48.810;9.150;2022-07-12T12:43:43;44.10;1.00
774;DHT22;370;48.810;9.150;2022-07-12T12:46:10;44.40;1.00
774;DHT22;370;48.810;9.150;2022-07-12T12:48:37;44.70;1.00
774;DHT22;370;48.810;9.150;2022-07-12T12:51:14;44.90;1.00
774;DHT22;370;48.810;9.150;2022-07-12T12:53:42;45.30;1.00
774;DHT22;370;48.810;9.150;2022-07-12T12:56:10;44.90;1.00
774;DHT22;370;48.810;9.150;2022-07-12T12:58:38;45.00;1.00
774;DHT22;370;48.810;9.150;2022-07-12T13:01:06;45.60;1.00
774;DHT22;370;48.810;9.150;2022-07-12T13:03:33;45.80;1.00
774;DHT22;370;48.810;9.150;2022-07-12T13:06:00;45.80;1.00
774;DHT22;370;48.810;9.150;2022-07-12T13:08:29;46.10;1.00
774;DHT22;370;48.810;9.150;2022-07-12T13:10:55;46.10;1.00
774;DHT22;370;48.810;9.150;2022-07-12T13:13:40;46.40;1.00
774;DHT22;370;48.810;9.150;2022-07-12T13:16:07;46.40;1.00
774;DHT22;370;48.810;9.150;2022-07-12T13:18:34;46.30;1.00
774;DHT22;370;48.810;9.150;2022-07-12T13:21:00;46.10;1.00
774;DHT22;370;48.810;9.150;2022-07-12T13:23:29;45.90;1.00
774;DHT22;370;48.810;9.150;2022-07-12T13:25:56;46.10;1.00
774;DHT22;370;48.810;9.150;2022-07-12T13:28:22;45.90;1.00
774;DHT22;370;48.810;9.150;2022-07-12T13:30:49;45.90;1.00
774;DHT22;370;48.810;9.150;2022-07-12T13:33:20;45.50;1.00
774;DHT22;370;48.810;9.150;2022-07-12T13:35:47;44.90;1.00
774;DHT22;370;48.810;9.150;2022-07-12T13:38:14;44.70;1.00
774;DHT22;370;48.810;9.150;2022-07-12T13:40:42;44.50;1.00
774;DHT22;370;48.810;9.150;2022-07-12T13:43:09;44.40;1.00
774;DHT22;370;48.810;9.150;2022-07-12T13:45:36;44.00;1.00
774;DHT22;370;48.810;9.150;2022-07-12T13:48:03;43.60;1.00
774;DHT22;370;48.810;9.150;2022-07-12T13:50:30;43.50;1.00
774;DHT22;370;48.810;9.150;2022-07-12T13:52:57;43.00;1.00
774;DHT22;370;48.810;9.150;2022-07-12T13:55:25;42.60;1.00
774;DHT22;370;48.810;9.150;2022-07-12T13:57:54;42.20;1.00
774;DHT22;370;48.810;9.150;2022-07-12T14:00:21;42.00;1.00
774;DHT22;370;48.810;9.150;2022-07-12T14:02:49;41.80;1.00
774;DHT22;370;48.810;9.150;2022-07-12T14:05:17;41.70;1.00
774;DHT22;370;48.810;9.150;2022-07-12T14:07:45;41.10;1.00
774;DHT22;370;48.810;9.150;2022-07-12T14:10:13;41.10;1.00
774;DHT22;370;48.810;9.150;2022-07-12T14:12:40;41.00;1.00
774;DHT22;370;48.810;9.150;2022-07-12T14:15:09;40.50;1.00
774;DHT22;370;48.810;9.150;2022-07-12T14:18:02;40.30;1.00
774;DHT22;370;48.810;9.150;2022-07-12T14:20:31;39.90;1.00
774;DHT22;370;48.810;9.150;2022-07-12T14:22:59;39.30;1.00
774;DHT22;370;48.810;9.150;2022-07-12T14:25:26;39.10;1.00
774;DHT22;370;48.810;9.150;2022-07-12T14:27:53;38.70;1.00
774;DHT22;370;48.810;9.150;2022-07-12T14:30:21;38.20;1.00
774;DHT22;370;48.810;9.150;2022-07-12T14:32:48;37.70;1.00
774;DHT22;370;48.810;9.150;2022-07-12T14:35:15;37.30;1.00
774;DHT22;370;48.810;9.150;2022-07-12T14:37:42;37.10;1.00
774;DHT22;370;48.810;9.150;2022-07-12T14:40:09;36.80;1.00
774;DHT22;370;48.810;9.150;2022-07-12T14:42:38;36.30;1.00
774;DHT22;370;48.810;9.150;2022-07-12T14:45:06;36.10;1.00
774;DHT22;370;48.810;9.150;2022-07-12T14:47:34;35.70;1.00
774;DHT22;370;48.810;9.150;2022-07-12T14:50:01;35.20;1.00
774;DHT22;370;48.810;9.150;2022-07-12T14:52:30;34.80;1.00
774;DHT22;370;48.810;9.150;2022-07-12T14:54:57;34.70;1.00
774;DHT22;370;48.810;9.150;2022-07-12T14:57:24;34.60;1.00
774;DHT22;370;48.810;9.150;2022-07-12T14:59:51;34.60;1.00
774;DHT22;370;48.810;9.150;2022-07-12T15:02:19;34.80;1.00
774;DHT22;370;48.810;9.150;2022-07-12T15:04:48;34.30;1.00
774;DHT22;370;48.810;9.150;2022-07-12T15:07:14;34.40;1.00
774;DHT22;370;48.810;9.150;2022-07-12T15:09:41;34.40;1.00
774;DHT22;370;48.810;9.150;2022-07-12T15:12:08;34.40;1.00
774;DHT22;370;48.810;9.150;2022-07-12T15:14:35;34.40;1.00
774;DHT22;370;48.810;9.150;2022-07-12T15:17:02;34.30;1.00
774;DHT22;370;48.810;9.150;2022-07-12T15:19:29;34.20;1.00
774;DHT22;370;48.810;9.150;2022-07-12T15:21:57;34.00;1.00
774;DHT22;370;48.810;9.150;2022-07-12T15:24:24;33.70;1.00
774;DHT22;370;48.810;9.150;2022-07-12T15:26:52;33.70;1.00
774;DHT22;370;48.810;9.150;2022-07-12T15:29:19;33.60;1.00
774;DHT22;370;48.810;9.150;2022-07-12T15:31:46;33.50;1.00
774;DHT22;370;48.810;9.150;2022-07-12T15:34:13;33.30;1.00
774;DHT22;370;48.810;9.150;2022-07-12T15:36:40;33.30;1.00
774;DHT22;370;48.810;9.150;2022-07-12T15:39:08;33.10;1.00
774;DHT22;370;48.810;9.150;2022-07-12T15:41:35;32.90;1.00
774;DHT22;370;48.810;9.150;2022-07-12T15:44:02;32.80;1.00
774;DHT22;370;48.810;9.150;2022-07-12T15:46:29;32.60;1.00
774;DHT22;370;48.810;9.150;2022-07-12T15:48:56;32.50;1.00
774;DHT22;370;48.810;9.150;2022-07-12T15:51:23;32.30;1.00
774;DHT22;370;48.810;9.150;2022-07-12T15:54:12;32.20;1.00
774;DHT22;370;48.810;9.150;2022-07-12T15:56:38;32.00;1.00
774;DHT22;370;48.810;9.150;2022-07-12T15:59:05;31.60;1.00
774;DHT22;370;48.810;9.150;2022-07-12T16:01:33;31.10;1.00
774;DHT22;370;48.810;9.150;2022-07-12T16:03:59;31.10;1.00
774;DHT22;370;48.810;9.150;2022-07-12T16:06:26;31.00;1.00
774;DHT22;370;48.810;9.150;2022-07-12T16:08:54;30.80;1.00
774;DHT22;370;48.810;9.150;2022-07-12T16:11:22;30.60;1.00
774;DHT22;370;48.810;9.150;2022-07-12T16:13:49;30.50;1.00
774;DHT22;370;48.810;9.150;2022-07-12T16:16:16;30.40;1.00
774;DHT22;370;48.810;9.150;2022-07-12T16:18:43;30.30;1.00
774;DHT22;370;48.810;9.150;2022-07-12T16:21:10;30.20;1.00
774;DHT22;370;48.810;9.150;2022-07-12T16:23:37;30.10;1.00
774;DHT22;370;48.810;9.150;2022-07-12T16:26:04;30.00;1.00
774;DHT22;370;48.810;9.150;2022-07-12T16:28:32;30.00;1.00
774;DHT22;370;48.810;9.150;2022-07-12T16:30:59;30.00;1.00
774;DHT22;370;48.810;9.150;2022-07-12T16:33:26;29.90;1.00
774;DHT22;370;48.810;9.150;2022-07-12T16:35:53;29.80;1.00
774;DHT22;370;48.810;9.150;2022-07-12T16:38:20;29.70;1.00
774;DHT22;370;48.810;9.150;2022-07-12T16:40:47;29.60;1.00
774;DHT22;370;48.810;9.150;2022-07-12T16:43:14;29.60;1.00
774;DHT22;370;48.810;9.150;2022-07-12T16:45:42;29.50;1.00
774;DHT22;370;48.810;9.150;2022-07-12T16:48:09;29.50;1.00
774;DHT22;370;48.810;9.150;2022-07-12T16:50:36;29.40;1.00
774;DHT22;370;48.810;9.150;2022-07-12T16:53:05;29.30;1.00
774;DHT22;370;48.810;9.150;2022-07-12T16:55:32;29.30;1.00
774;DHT22;370;48.810;9.150;2022-07-12T16:57:59;29.20;1.00
774;DHT22;370;48.810;9.150;2022-07-12T17:00:26;29.20;1.00
774;DHT22;370;48.810;9.150;2022-07-12T17:02:54;29.20;1.00